Time;durP1;ratioP1;P1;durP2;ratioP2;P2;SDS_P1;SDS_P2;PMS_P1;PMS_P2;Temp;Humidity;BMP_temperature;BMP_pressure;BME280_temperature;BME280_humidity;BME280_pressure;Samples;Min_cycle;Max_cycle;Signal;HPM_P1;HPM_P2
2022/12/31 00:01:21;;;;;;;;;;;12.30;99.90;;;;;;8385880;28;19932;-73
2022/12/31 00:05:23;;;;;;;;;;;12.30;99.90;;;;;;8389553;28;20380;-73
2022/12/31 00:09:24;;;;;;;;;;;12.30;99.90;;;;;;8404548;28;19925;-73
2022/12/31 00:13:26;;;;;;;;;;;12.40;99.90;;;;;;8384250;28;19929;-74
2022/12/31 00:17:28;;;;;;;;;;;12.40;99.90;;;;;;8384582;28;19931;-73
2022/12/31 00:21:30;;;;;;;;;;;12.40;99.90;;;;;;8387773;28;19935;-73
2022/12/31 00:25:33;;;;;;;;;;;12.40;99.90;;;;;;8382079;28;20670;-73
2022/12/31 00:29:35;;;;;;;;;;;12.30;99.90;;;;;;8365344;28;20299;-73
2022/12/31 00:33:37;;;;;;;;;;;12.30;99.90;;;;;;8384172;28;19932;-73
2022/12/31 00:37:38;;;;;;;;;;;12.30;99.90;;;;;;8381701;28;19932;-74
2022/12/31 00:41:42;;;;;;;;;;;12.20;99.90;;;;;;8358792;28;19932;-73
2022/12/31 00:45:44;;;;;;;;;;;12.20;99.90;;;;;;8386640;28;19925;-74
2022/12/31 00:49:45;;;;;;;;;;;12.20;99.90;;;;;;8368014;28;19925;-73
2022/12/31 00:53:47;;;;;;;;;;;12.20;99.90;;;;;;8388831;28;19924;-73
2022/12/31 00:57:49;;;;;;;;;;;12.20;99.90;;;;;;8370607;28;20372;-73
2022/12/31 01:01:50;;;;;;;;;;;12.20;99.90;;;;;;8383677;28;19924;-74
2022/12/31 01:05:57;;;;;;;;;;;12.20;99.90;;;;;;8381821;28;20026;-74
2022/12/31 01:09:58;;;;;;;;;;;12.20;99.90;;;;;;8381619;28;20015;-73
2022/12/31 01:14:03;;;;;;;;;;;12.20;99.90;;;;;;8375963;28;20008;-74
2022/12/31 01:18:06;;;;;;;;;;;12.20;99.90;;;;;;8385363;28;19924;-74
2022/12/31 01:22:07;;;;;;;;;;;12.20;99.90;;;;;;8358962;28;19932;-73
2022/12/31 01:26:10;;;;;;;;;;;12.20;99.90;;;;;;8378842;28;19975;-73
2022/12/31 01:30:12;;;;;;;;;;;12.10;99.90;;;;;;8387201;28;19932;-73
2022/12/31 01:34:13;;;;;;;;;;;12.10;99.90;;;;;;8392012;28;19931;-73
2022/12/31 01:38:15;;;;;;;;;;;12.10;99.90;;;;;;8360729;28;19936;-73
2022/12/31 01:42:17;;;;;;;;;;;12.10;99.90;;;;;;8372281;28;20474;-73
2022/12/31 01:46:33;;;;;;;;;;;12.10;99.90;;;;;;8373503;28;19955;-73
2022/12/31 01:50:37;;;;;;;;;;;12.10;99.90;;;;;;8382771;28;20450;-73
2022/12/31 01:54:41;;;;;;;;;;;12.10;99.90;;;;;;8399601;28;20342;-72
2022/12/31 01:58:44;;;;;;;;;;;12.00;99.90;;;;;;8383840;28;19980;-73
2022/12/31 02:02:46;;;;;;;;;;;12.00;99.90;;;;;;8359406;28;19924;-73
2022/12/31 02:06:53;;;;;;;;;;;12.00;99.90;;;;;;8385776;28;20245;-73
2022/12/31 02:10:55;;;;;;;;;;;12.00;99.90;;;;;;8385697;28;19952;-73
2022/12/31 02:14:57;;;;;;;;;;;12.00;99.90;;;;;;8387331;28;20455;-73
2022/12/31 02:19:18;;;;;;;;;;;11.90;99.90;;;;;;8380821;28;20482;-73
2022/12/31 02:23:39;;;;;;;;;;;11.90;99.90;;;;;;8370884;28;19940;-73
2022/12/31 02:27:56;;;;;;;;;;;11.80;99.90;;;;;;8378919;28;19924;-72
2022/12/31 02:32:20;;;;;;;;;;;11.80;99.90;;;;;;8361274;28;19933;-72
2022/12/31 02:36:24;;;;;;;;;;;11.70;99.90;;;;;;8367232;28;19932;-72
2022/12/31 02:40:25;;;;;;;;;;;11.70;99.90;;;;;;8386051;28;19947;-72
2022/12/31 02:44:31;;;;;;;;;;;11.70;99.90;;;;;;8392091;28;19951;-73
2022/12/31 02:48:44;;;;;;;;;;;11.70;99.90;;;;;;8391813;28;20012;-72
2022/12/31 02:52:56;;;;;;;;;;;11.60;99.90;;;;;;8392119;28;19929;-72
2022/12/31 02:56:58;;;;;;;;;;;11.60;99.90;;;;;;8398114;28;19971;-72
2022/12/31 03:05:22;;;;;;;;;;;11.60;99.90;;;;;;8380692;28;19940;-73
2022/12/31 03:09:24;;;;;;;;;;;11.50;99.90;;;;;;8390115;28;19924;-73
2022/12/31 03:13:25;;;;;;;;;;;11.50;99.90;;;;;;8391559;28;19994;-73
2022/12/31 03:17:27;;;;;;;;;;;11.50;99.90;;;;;;8385804;28;20422;-73
2022/12/31 03:25:49;;;;;;;;;;;11.50;99.90;;;;;;8390774;28;20376;-73
2022/12/31 03:29:51;;;;;;;;;;;11.40;99.90;;;;;;8381035;28;19969;-72
2022/12/31 03:33:52;;;;;;;;;;;11.40;99.90;;;;;;8389332;28;19947;-72
2022/12/31 03:37:55;;;;;;;;;;;11.40;99.90;;;;;;8384026;28;19939;-72
2022/12/31 03:41:57;;;;;;;;;;;11.40;99.90;;;;;;8363943;28;19924;-72
2022/12/31 03:46:00;;;;;;;;;;;11.40;99.90;;;;;;8383130;28;19924;-72
2022/12/31 03:50:02;;;;;;;;;;;11.30;99.90;;;;;;8383802;28;19951;-72
2022/12/31 03:54:03;;;;;;;;;;;11.30;99.90;;;;;;8382882;28;20276;-72
2022/12/31 03:58:05;;;;;;;;;;;11.20;99.90;;;;;;8387300;28;19925;-72
2022/12/31 04:02:07;;;;;;;;;;;11.20;99.90;;;;;;8372795;28;20398;-72
2022/12/31 04:06:09;;;;;;;;;;;11.20;99.90;;;;;;8384296;28;20410;-72
2022/12/31 04:10:12;;;;;;;;;;;11.20;99.90;;;;;;8386150;28;19951;-72
2022/12/31 04:14:13;;;;;;;;;;;11.20;99.90;;;;;;8368576;28;20403;-72
2022/12/31 04:23:31;;;;;;;;;;;11.20;99.90;;;;;;8372371;28;20356;-72
2022/12/31 04:27:32;;;;;;;;;;;11.20;99.90;;;;;;8390154;28;19928;-72
2022/12/31 04:31:34;;;;;;;;;;;11.20;99.90;;;;;;8404678;28;19924;-72
2022/12/31 04:35:36;;;;;;;;;;;11.20;99.90;;;;;;8385214;28;19928;-72
2022/12/31 04:39:37;;;;;;;;;;;11.20;99.90;;;;;;8374171;28;19933;-71
2022/12/31 04:43:39;;;;;;;;;;;11.20;99.90;;;;;;8374950;28;19934;-71
2022/12/31 04:47:41;;;;;;;;;;;11.20;99.90;;;;;;8379070;28;19939;-72
2022/12/31 04:51:42;;;;;;;;;;;11.20;99.90;;;;;;8381996;28;19932;-72
2022/12/31 04:55:44;;;;;;;;;;;11.20;99.90;;;;;;8386157;28;19925;-72
2022/12/31 04:59:46;;;;;;;;;;;11.20;99.90;;;;;;8367995;28;20299;-72
2022/12/31 05:03:48;;;;;;;;;;;11.20;99.90;;;;;;8375965;28;19924;-72
2022/12/31 05:07:49;;;;;;;;;;;11.20;99.90;;;;;;8380185;28;19932;-72
2022/12/31 05:11:51;;;;;;;;;;;11.20;99.90;;;;;;8381556;28;19940;-72
2022/12/31 05:15:53;;;;;;;;;;;11.20;99.90;;;;;;8383083;28;19931;-72
2022/12/31 05:19:54;;;;;;;;;;;11.30;99.90;;;;;;8385559;28;19970;-72
2022/12/31 05:23:58;;;;;;;;;;;11.30;99.90;;;;;;8387708;28;20208;-72
2022/12/31 05:27:59;;;;;;;;;;;11.40;99.90;;;;;;8377627;28;19925;-72
2022/12/31 05:32:01;;;;;;;;;;;11.40;99.90;;;;;;8376264;28;19928;-72
2022/12/31 05:36:03;;;;;;;;;;;11.50;99.90;;;;;;8375437;28;19931;-72
2022/12/31 05:40:05;;;;;;;;;;;11.60;99.90;;;;;;8393187;28;19928;-72
2022/12/31 05:44:06;;;;;;;;;;;11.60;99.90;;;;;;8383653;28;19928;-71
2022/12/31 05:48:08;;;;;;;;;;;11.60;99.90;;;;;;8385858;28;19933;-72
2022/12/31 05:52:10;;;;;;;;;;;11.60;99.90;;;;;;8383728;28;20015;-72
2022/12/31 05:56:11;;;;;;;;;;;11.70;99.90;;;;;;8385233;28;19935;-72
2022/12/31 06:00:13;;;;;;;;;;;11.70;99.90;;;;;;8368474;28;19925;-71
2022/12/31 06:04:15;;;;;;;;;;;11.70;99.90;;;;;;8381875;28;20303;-72
2022/12/31 06:08:17;;;;;;;;;;;11.70;99.90;;;;;;8378460;28;19925;-71
2022/12/31 06:12:18;;;;;;;;;;;11.70;99.90;;;;;;8378311;28;19971;-72
2022/12/31 06:16:20;;;;;;;;;;;11.80;99.90;;;;;;8376397;28;19930;-72
2022/12/31 06:20:22;;;;;;;;;;;11.80;99.90;;;;;;8378983;28;20363;-71
2022/12/31 06:24:23;;;;;;;;;;;11.80;99.90;;;;;;8373817;28;20360;-72
2022/12/31 06:28:25;;;;;;;;;;;11.80;99.90;;;;;;8384304;28;20342;-72
2022/12/31 06:32:27;;;;;;;;;;;11.90;99.90;;;;;;8387495;28;20411;-72
2022/12/31 06:36:28;;;;;;;;;;;11.90;99.90;;;;;;8382430;28;19925;-72
2022/12/31 06:40:30;;;;;;;;;;;11.90;99.90;;;;;;8378852;28;19971;-72
2022/12/31 06:44:31;;;;;;;;;;;11.90;99.90;;;;;;8395241;28;20415;-72
2022/12/31 06:48:33;;;;;;;;;;;12.00;99.90;;;;;;8383793;28;19932;-72
2022/12/31 06:52:36;;;;;;;;;;;12.10;99.90;;;;;;8395016;28;19932;-72
2022/12/31 06:56:37;;;;;;;;;;;12.10;99.90;;;;;;8378516;28;19925;-72
2022/12/31 07:00:43;;;;;;;;;;;12.30;99.90;;;;;;8378090;28;19943;-71
2022/12/31 07:04:59;;;;;;;;;;;12.30;99.90;;;;;;8389928;28;20288;-71
2022/12/31 07:09:30;;;;;;;;;;;12.50;99.90;;;;;;8390175;28;20351;-71
2022/12/31 07:13:34;;;;;;;;;;;12.60;99.90;;;;;;8377944;28;20300;-72
2022/12/31 07:17:52;;;;;;;;;;;12.70;99.90;;;;;;8389822;28;19924;-72
2022/12/31 07:21:54;;;;;;;;;;;12.80;99.90;;;;;;8386776;28;19924;-72
2022/12/31 07:26:05;;;;;;;;;;;12.80;99.90;;;;;;8375581;28;19986;-72
2022/12/31 07:30:12;;;;;;;;;;;12.90;99.90;;;;;;8407609;28;20008;-71
2022/12/31 07:34:33;;;;;;;;;;;13.00;99.90;;;;;;8368694;28;20294;-72
2022/12/31 07:38:53;;;;;;;;;;;13.00;99.90;;;;;;8390680;28;20385;-72
2022/12/31 07:43:01;;;;;;;;;;;13.00;99.90;;;;;;8384443;28;19978;-72
2022/12/31 07:47:04;;;;;;;;;;;13.10;99.90;;;;;;8409577;28;20257;-72
2022/12/31 07:51:08;;;;;;;;;;;13.10;99.90;;;;;;8362006;28;19968;-72
2022/12/31 07:55:10;;;;;;;;;;;13.20;99.90;;;;;;8393635;28;20383;-72
2022/12/31 07:59:30;;;;;;;;;;;13.20;99.90;;;;;;8391242;28;20399;-72
2022/12/31 08:03:47;;;;;;;;;;;13.20;99.90;;;;;;8394215;28;20652;-72
2022/12/31 08:08:12;;;;;;;;;;;13.20;99.90;;;;;;8390775;28;20339;-72
2022/12/31 08:12:14;;;;;;;;;;;13.20;99.90;;;;;;8364188;28;20278;-72
2022/12/31 08:16:16;;;;;;;;;;;13.20;99.90;;;;;;8388235;28;19924;-72
2022/12/31 08:20:17;;;;;;;;;;;13.20;99.90;;;;;;8386462;28;20442;-72
2022/12/31 08:24:34;;;;;;;;;;;13.20;99.90;;;;;;8390716;28;19936;-72
2022/12/31 08:28:36;;;;;;;;;;;13.10;99.90;;;;;;8391654;28;20360;-72
2022/12/31 08:32:45;;;;;;;;;;;13.10;99.90;;;;;;8379039;28;19932;-72
2022/12/31 08:37:02;;;;;;;;;;;13.10;99.90;;;;;;8386219;28;19924;-72
2022/12/31 08:41:03;;;;;;;;;;;13.00;99.90;;;;;;8382840;28;19925;-72
2022/12/31 08:45:08;;;;;;;;;;;13.00;99.90;;;;;;8374603;28;19924;-73
2022/12/31 08:49:10;;;;;;;;;;;13.00;99.90;;;;;;8379725;28;20039;-73
2022/12/31 08:53:12;;;;;;;;;;;13.00;99.90;;;;;;8373082;28;19925;-73
2022/12/31 08:57:24;;;;;;;;;;;13.00;99.90;;;;;;8389862;28;19939;-73
2022/12/31 09:01:29;;;;;;;;;;;12.90;99.90;;;;;;8401094;28;19924;-73
2022/12/31 09:05:31;;;;;;;;;;;12.90;99.90;;;;;;8385025;28;20380;-74
2022/12/31 09:09:32;;;;;;;;;;;12.90;99.90;;;;;;8377618;28;20011;-74
2022/12/31 09:13:59;;;;;;;;;;;12.90;99.90;;;;;;8367338;28;19999;-75
2022/12/31 09:18:01;;;;;;;;;;;13.00;99.90;;;;;;8373137;28;19924;-74
2022/12/31 09:22:03;;;;;;;;;;;13.00;99.90;;;;;;8369114;28;20775;-74
2022/12/31 09:47:04;;;;;;;;;;;13.20;99.90;;;;;;8387277;28;20532;-74
2022/12/31 09:51:25;;;;;;;;;;;13.30;99.90;;;;;;8410524;28;19925;-75
2022/12/31 09:55:44;;;;;;;;;;;13.40;99.90;;;;;;8395016;28;20276;-75
2022/12/31 09:59:52;;;;;;;;;;;13.50;99.90;;;;;;8398852;28;19956;-75
2022/12/31 10:04:12;;;;;;;;;;;13.70;99.90;;;;;;8403136;28;20387;-74
2022/12/31 10:08:29;;;;;;;;;;;13.80;99.90;;;;;;8401251;28;19932;-74
2022/12/31 10:12:59;;;;;;;;;;;13.90;99.90;;;;;;8400633;28;19924;-75
2022/12/31 10:17:13;;;;;;;;;;;14.00;99.90;;;;;;8405210;28;19929;-75
2022/12/31 10:21:40;;;;;;;;;;;14.10;99.90;;;;;;8405445;28;19933;-75
2022/12/31 10:25:52;;;;;;;;;;;14.10;99.90;;;;;;8398383;28;19924;-75
2022/12/31 10:30:13;;;;;;;;;;;14.10;99.90;;;;;;8394368;28;20350;-74
2022/12/31 10:34:14;;;;;;;;;;;14.20;99.90;;;;;;8394394;28;19967;-75
2022/12/31 10:38:19;;;;;;;;;;;14.20;99.90;;;;;;8387098;28;19924;-75
2022/12/31 10:42:27;;;;;;;;;;;14.20;99.90;;;;;;8366144;28;20391;-75
2022/12/31 10:46:28;;;;;;;;;;;14.20;99.90;;;;;;8387509;28;22008;-75
2022/12/31 10:50:45;;;;;;;;;;;14.30;99.90;;;;;;8392668;28;19959;-74
2022/12/31 10:55:06;;;;;;;;;;;14.40;99.90;;;;;;8401548;28;19964;-75
2022/12/31 10:59:13;;;;;;;;;;;14.40;99.90;;;;;;8397133;28;19928;-75
2022/12/31 11:03:24;;;;;;;;;;;14.50;99.90;;;;;;8390188;28;19961;-75
2022/12/31 11:07:33;;;;;;;;;;;14.60;99.90;;;;;;8395109;28;19929;-74
2022/12/31 11:11:48;;;;;;;;;;;14.50;99.90;;;;;;8389599;28;19928;-74
2022/12/31 11:15:57;;;;;;;;;;;14.50;99.90;;;;;;8380900;28;19928;-74
2022/12/31 11:20:02;;;;;;;;;;;14.40;99.90;;;;;;8378654;28;19947;-74
2022/12/31 11:24:03;;;;;;;;;;;14.30;99.90;;;;;;8361264;28;19925;-74
2022/12/31 11:28:24;;;;;;;;;;;14.30;99.90;;;;;;8345977;28;19955;-74
2022/12/31 11:32:50;;;;;;;;;;;14.30;99.90;;;;;;8354284;28;20095;-74
2022/12/31 11:37:09;;;;;;;;;;;14.30;99.90;;;;;;8345454;28;20440;-74
2022/12/31 11:41:18;;;;;;;;;;;14.30;99.90;;;;;;8338988;28;19969;-75
2022/12/31 11:45:26;;;;;;;;;;;14.40;99.90;;;;;;8353369;28;19960;-75
2022/12/31 11:49:47;;;;;;;;;;;14.40;99.90;;;;;;8359660;28;19979;-75
2022/12/31 11:53:56;;;;;;;;;;;14.40;99.90;;;;;;8349103;28;20360;-74
2022/12/31 11:57:58;;;;;;;;;;;14.50;99.90;;;;;;8361424;28;19931;-74
2022/12/31 12:02:03;;;;;;;;;;;14.50;99.90;;;;;;8374661;28;19929;-75
2022/12/31 12:06:06;;;;;;;;;;;14.50;99.90;;;;;;8338849;28;19980;-75
2022/12/31 12:10:34;;;;;;;;;;;14.50;99.90;;;;;;8374293;28;19929;-74
2022/12/31 12:14:38;;;;;;;;;;;14.50;99.90;;;;;;8341169;28;19925;-75
2022/12/31 12:18:47;;;;;;;;;;;14.50;99.90;;;;;;8348290;28;19936;-75
2022/12/31 12:22:50;;;;;;;;;;;14.50;99.90;;;;;;8366719;28;19931;-75
2022/12/31 12:26:52;;;;;;;;;;;14.50;99.90;;;;;;8386699;28;19924;-75
2022/12/31 12:30:59;;;;;;;;;;;14.50;99.90;;;;;;8379024;28;20411;-75
2022/12/31 12:35:11;;;;;;;;;;;14.50;99.90;;;;;;8382691;28;19931;-75
2022/12/31 12:39:23;;;;;;;;;;;14.50;99.90;;;;;;8383421;28;19933;-75
2022/12/31 12:43:27;;;;;;;;;;;14.50;99.90;;;;;;8387967;28;19980;-75
2022/12/31 12:47:29;;;;;;;;;;;14.50;99.90;;;;;;8389275;28;19968;-75
2022/12/31 12:51:34;;;;;;;;;;;14.50;99.90;;;;;;8391339;28;20028;-75
2022/12/31 12:55:40;;;;;;;;;;;14.60;99.90;;;;;;8377782;28;19935;-75
2022/12/31 13:00:14;;;;;;;;;;;14.60;99.90;;;;;;8364067;28;20007;-75
2022/12/31 13:04:30;;;;;;;;;;;14.60;99.90;;;;;;8380160;28;19924;-75
2022/12/31 13:08:43;;;;;;;;;;;14.60;99.90;;;;;;8398070;28;19967;-74
2022/12/31 13:12:47;;;;;;;;;;;14.60;99.90;;;;;;8388339;28;19963;-75
2022/12/31 13:17:09;;;;;;;;;;;14.60;99.90;;;;;;8377951;28;19932;-75
2022/12/31 13:21:14;;;;;;;;;;;14.60;99.90;;;;;;8382181;28;19929;-74
2022/12/31 13:25:15;;;;;;;;;;;14.50;99.90;;;;;;8388393;28;20413;-74
2022/12/31 13:29:19;;;;;;;;;;;14.50;99.90;;;;;;8387961;28;20040;-74
2022/12/31 13:33:23;;;;;;;;;;;14.50;99.90;;;;;;8383257;28;19925;-75
2022/12/31 13:37:27;;;;;;;;;;;14.40;99.90;;;;;;8383804;28;19967;-74
2022/12/31 13:41:37;;;;;;;;;;;14.40;99.90;;;;;;8361205;28;19924;-75
2022/12/31 13:45:42;;;;;;;;;;;14.40;99.90;;;;;;8384540;28;19928;-74
2022/12/31 13:49:49;;;;;;;;;;;14.40;99.90;;;;;;8370734;28;19928;-74
2022/12/31 13:53:56;;;;;;;;;;;14.40;99.90;;;;;;8377337;28;19925;-74
2022/12/31 13:58:10;;;;;;;;;;;14.40;99.90;;;;;;8382406;28;19925;-74
2022/12/31 14:02:14;;;;;;;;;;;14.40;99.90;;;;;;8381595;28;19931;-75
2022/12/31 14:06:28;;;;;;;;;;;14.40;99.90;;;;;;8388676;28;19931;-75
2022/12/31 14:10:29;;;;;;;;;;;14.50;99.90;;;;;;8375704;28;20662;-74
2022/12/31 14:14:31;;;;;;;;;;;14.50;99.90;;;;;;8384831;28;19933;-75
2022/12/31 14:18:46;;;;;;;;;;;14.50;99.90;;;;;;8388469;28;19924;-75
2022/12/31 14:22:50;;;;;;;;;;;14.60;99.90;;;;;;8390713;28;19925;-74
2022/12/31 14:26:56;;;;;;;;;;;14.70;99.90;;;;;;8374893;28;19938;-75
2022/12/31 14:31:03;;;;;;;;;;;14.60;99.90;;;;;;8382790;28;19932;-73
2022/12/31 14:35:05;;;;;;;;;;;14.60;99.90;;;;;;8389903;28;19947;-74
2022/12/31 14:39:20;;;;;;;;;;;14.50;99.90;;;;;;8364162;28;19947;-75
2022/12/31 14:43:42;;;;;;;;;;;14.60;99.90;;;;;;8380261;28;19933;-74
2022/12/31 14:47:47;;;;;;;;;;;14.60;99.90;;;;;;8369327;28;19932;-75
2022/12/31 14:51:49;;;;;;;;;;;14.60;99.90;;;;;;8374632;28;20383;-75
2022/12/31 14:55:58;;;;;;;;;;;14.60;99.90;;;;;;8370429;28;19952;-75
2022/12/31 15:00:00;;;;;;;;;;;14.60;99.90;;;;;;8387164;28;20058;-75
2022/12/31 15:04:12;;;;;;;;;;;14.60;99.90;;;;;;8386959;28;19932;-75
2022/12/31 15:08:29;;;;;;;;;;;14.60;99.90;;;;;;8388869;28;19933;-75
2022/12/31 15:12:41;;;;;;;;;;;14.70;99.90;;;;;;8388362;28;19928;-75
2022/12/31 15:16:55;;;;;;;;;;;14.70;99.90;;;;;;8397804;28;19964;-75
2022/12/31 15:21:15;;;;;;;;;;;14.80;99.90;;;;;;8388254;28;19924;-75
2022/12/31 15:25:20;;;;;;;;;;;14.90;99.90;;;;;;8381260;28;20461;-75
2022/12/31 15:29:25;;;;;;;;;;;14.90;99.90;;;;;;8371138;28;20388;-75
2022/12/31 15:33:32;;;;;;;;;;;15.00;99.90;;;;;;8398020;28;20034;-75
2022/12/31 15:37:34;;;;;;;;;;;15.00;99.90;;;;;;8388868;28;19939;-75
2022/12/31 15:41:42;;;;;;;;;;;15.00;99.90;;;;;;8383743;28;20395;-75
2022/12/31 15:46:10;;;;;;;;;;;15.00;99.90;;;;;;8375735;28;19939;-75
2022/12/31 15:50:14;;;;;;;;;;;15.10;99.90;;;;;;8367291;28;19925;-75
2022/12/31 15:54:22;;;;;;;;;;;15.10;99.90;;;;;;8386481;28;19925;-75
2022/12/31 15:58:29;;;;;;;;;;;15.10;99.90;;;;;;8380429;28;19936;-75
2022/12/31 16:02:31;;;;;;;;;;;15.20;99.90;;;;;;8355648;28;19925;-75
2022/12/31 16:06:35;;;;;;;;;;;15.20;99.90;;;;;;8370306;28;19968;-76
2022/12/31 16:10:36;;;;;;;;;;;15.20;99.90;;;;;;8374049;28;20387;-75
2022/12/31 16:14:41;;;;;;;;;;;15.20;99.90;;;;;;8388216;28;20395;-75
2022/12/31 16:18:43;;;;;;;;;;;15.20;99.90;;;;;;8370558;28;19978;-75
2022/12/31 16:22:49;;;;;;;;;;;15.30;99.90;;;;;;8343911;28;20019;-75
2022/12/31 16:26:52;;;;;;;;;;;15.30;99.90;;;;;;8366819;28;19928;-75
2022/12/31 16:31:00;;;;;;;;;;;15.30;99.90;;;;;;8367096;28;20016;-75
2022/12/31 16:35:02;;;;;;;;;;;15.30;99.90;;;;;;8356588;28;19925;-75
2022/12/31 16:39:22;;;;;;;;;;;15.30;99.90;;;;;;8360164;28;19928;-75
2022/12/31 16:43:26;;;;;;;;;;;15.30;99.90;;;;;;8362570;28;19940;-75
2022/12/31 16:47:32;;;;;;;;;;;15.30;99.90;;;;;;8350040;28;19936;-75
2022/12/31 16:51:36;;;;;;;;;;;15.30;99.90;;;;;;8340186;28;20023;-75
2022/12/31 16:55:38;;;;;;;;;;;15.30;99.90;;;;;;8377913;28;20421;-75
2022/12/31 16:59:43;;;;;;;;;;;15.30;99.90;;;;;;8362455;28;19929;-75
2022/12/31 17:03:47;;;;;;;;;;;15.30;99.90;;;;;;8361172;28;19960;-75
2022/12/31 17:07:49;;;;;;;;;;;15.30;99.90;;;;;;8359104;28;20015;-75
2022/12/31 17:11:52;;;;;;;;;;;15.20;99.90;;;;;;8344613;28;19931;-75
2022/12/31 17:15:55;;;;;;;;;;;15.20;99.90;;;;;;8352330;28;19936;-75
2022/12/31 17:19:58;;;;;;;;;;;15.20;99.90;;;;;;8358411;28;20023;-75
2022/12/31 17:24:03;;;;;;;;;;;15.20;99.90;;;;;;8355233;28;19925;-75
2022/12/31 17:28:06;;;;;;;;;;;15.20;99.90;;;;;;8344337;28;20003;-75
2022/12/31 17:32:27;;;;;;;;;;;15.20;99.90;;;;;;8341934;28;19928;-75
2022/12/31 17:36:29;;;;;;;;;;;15.20;99.90;;;;;;8343293;28;19951;-75
2022/12/31 17:40:35;;;;;;;;;;;15.20;99.90;;;;;;8361068;28;19924;-75
2022/12/31 17:44:54;;;;;;;;;;;15.10;99.90;;;;;;8355720;28;20280;-75
2022/12/31 17:48:59;;;;;;;;;;;15.10;99.90;;;;;;8382133;28;19924;-75
2022/12/31 17:53:07;;;;;;;;;;;15.10;99.90;;;;;;8347168;28;20003;-75
2022/12/31 17:57:20;;;;;;;;;;;15.10;99.90;;;;;;8348403;28;20368;-75
2022/12/31 18:01:22;;;;;;;;;;;15.20;99.90;;;;;;8363491;28;19925;-75
2022/12/31 18:05:24;;;;;;;;;;;15.20;99.90;;;;;;8343346;28;19924;-75
2022/12/31 18:09:26;;;;;;;;;;;15.20;99.90;;;;;;8369930;28;19975;-74
2022/12/31 18:13:27;;;;;;;;;;;15.20;99.90;;;;;;8368190;28;20325;-75
2022/12/31 18:17:29;;;;;;;;;;;15.20;99.90;;;;;;8348696;28;20365;-75
2022/12/31 18:21:33;;;;;;;;;;;15.10;99.90;;;;;;8363292;28;19929;-75
2022/12/31 18:25:34;;;;;;;;;;;15.10;99.90;;;;;;8372076;28;19932;-75
2022/12/31 18:29:36;;;;;;;;;;;15.10;99.90;;;;;;8358425;28;19936;-75
2022/12/31 18:33:38;;;;;;;;;;;15.20;99.90;;;;;;8364254;28;19936;-74
2022/12/31 18:37:40;;;;;;;;;;;15.20;99.90;;;;;;8375792;28;20390;-75
2022/12/31 18:41:48;;;;;;;;;;;15.20;99.90;;;;;;8384385;28;19928;-75
2022/12/31 18:45:50;;;;;;;;;;;15.30;99.90;;;;;;8365674;28;20386;-75
2022/12/31 18:49:52;;;;;;;;;;;15.30;99.90;;;;;;8356994;28;19933;-75
2022/12/31 18:53:54;;;;;;;;;;;15.30;99.90;;;;;;8366007;28;20391;-74
2022/12/31 18:57:55;;;;;;;;;;;15.30;99.90;;;;;;8361159;28;20315;-75
2022/12/31 19:01:57;;;;;;;;;;;15.30;99.90;;;;;;8366169;28;20276;-75
2022/12/31 19:05:59;;;;;;;;;;;15.30;99.90;;;;;;8361563;28;19969;-74
2022/12/31 19:10:00;;;;;;;;;;;15.30;99.90;;;;;;8361426;28;19925;-74
2022/12/31 19:14:02;;;;;;;;;;;15.30;99.90;;;;;;8362940;28;19928;-75
2022/12/31 19:18:04;;;;;;;;;;;15.30;99.90;;;;;;8368070;28;19939;-74
2022/12/31 19:22:05;;;;;;;;;;;15.30;99.90;;;;;;8364833;28;19928;-75
2022/12/31 19:26:09;;;;;;;;;;;15.30;99.90;;;;;;8366776;28;19928;-74
2022/12/31 19:30:21;;;;;;;;;;;15.30;99.90;;;;;;8365957;28;20384;-74
2022/12/31 19:34:23;;;;;;;;;;;15.30;99.90;;;;;;8379949;28;19928;-75
2022/12/31 19:38:25;;;;;;;;;;;15.20;99.90;;;;;;8343483;28;19929;-75
2022/12/31 19:42:27;;;;;;;;;;;15.20;99.90;;;;;;8351079;28;19932;-75
2022/12/31 19:46:29;;;;;;;;;;;15.20;99.90;;;;;;8378090;28;19925;-74
2022/12/31 19:50:31;;;;;;;;;;;15.10;99.90;;;;;;8365171;28;19953;-75
2022/12/31 19:54:33;;;;;;;;;;;15.10;99.90;;;;;;8369210;28;19932;-75
2022/12/31 19:58:35;;;;;;;;;;;15.10;99.90;;;;;;8378089;28;19934;-74
2022/12/31 20:02:36;;;;;;;;;;;15.10;99.90;;;;;;8362771;28;20388;-74
2022/12/31 20:06:38;;;;;;;;;;;15.10;99.90;;;;;;8363613;28;19924;-74
2022/12/31 20:10:40;;;;;;;;;;;15.10;99.90;;;;;;8364487;28;19930;-74
2022/12/31 20:14:41;;;;;;;;;;;15.20;99.90;;;;;;8360198;28;19925;-74
2022/12/31 20:18:44;;;;;;;;;;;15.20;99.90;;;;;;8367933;28;19929;-74
2022/12/31 20:22:46;;;;;;;;;;;15.20;99.90;;;;;;8362145;28;19971;-74
2022/12/31 20:26:47;;;;;;;;;;;15.20;99.90;;;;;;8364100;28;20020;-74
2022/12/31 20:30:49;;;;;;;;;;;15.30;99.90;;;;;;8360792;28;19970;-74
2022/12/31 20:34:51;;;;;;;;;;;15.30;99.90;;;;;;8358862;28;20445;-74
2022/12/31 20:38:53;;;;;;;;;;;15.30;99.90;;;;;;8355366;28;20422;-74
2022/12/31 20:42:54;;;;;;;;;;;15.30;99.90;;;;;;8365557;28;19933;-74
2022/12/31 20:46:56;;;;;;;;;;;15.30;99.90;;;;;;8361646;28;20375;-74
2022/12/31 20:50:58;;;;;;;;;;;15.40;99.90;;;;;;8376915;28;19955;-74
2022/12/31 20:54:59;;;;;;;;;;;15.40;99.90;;;;;;8360823;28;19939;-74
2022/12/31 20:59:01;;;;;;;;;;;15.40;99.90;;;;;;8361690;28;19924;-74
2022/12/31 21:03:03;;;;;;;;;;;15.40;99.90;;;;;;8359508;28;19975;-74
2022/12/31 21:07:19;;;;;;;;;;;15.40;99.90;;;;;;8371417;28;19977;-74
2022/12/31 21:15:41;;;;;;;;;;;15.50;99.90;;;;;;8364488;28;20384;-74
2022/12/31 21:19:42;;;;;;;;;;;15.50;99.90;;;;;;8359888;28;20343;-74
2022/12/31 21:23:44;;;;;;;;;;;15.50;99.90;;;;;;8362098;28;19929;-74
2022/12/31 21:27:46;;;;;;;;;;;15.50;99.90;;;;;;8358727;28;19928;-73
2022/12/31 21:31:48;;;;;;;;;;;15.50;99.90;;;;;;8360381;28;20277;-75
2022/12/31 21:35:49;;;;;;;;;;;15.50;99.90;;;;;;8358535;28;19975;-74
2022/12/31 21:39:54;;;;;;;;;;;15.40;99.90;;;;;;8362996;28;20387;-74
2022/12/31 21:43:56;;;;;;;;;;;15.30;99.90;;;;;;8357650;28;20023;-74
2022/12/31 21:52:24;;;;;;;;;;;15.30;99.90;;;;;;8362219;28;20004;-74
2022/12/31 21:56:26;;;;;;;;;;;15.30;99.90;;;;;;8360642;28;19936;-74
2022/12/31 22:04:48;;;;;;;;;;;15.30;99.90;;;;;;8380153;28;19931;-74
2022/12/31 22:09:09;;;;;;;;;;;15.40;99.90;;;;;;8374359;28;19928;-73
2022/12/31 22:13:12;;;;;;;;;;;15.40;99.90;;;;;;8366661;28;19928;-74
2022/12/31 22:17:13;;;;;;;;;;;15.40;99.90;;;;;;8377540;28;20329;-74
2022/12/31 22:21:16;;;;;;;;;;;15.40;99.90;;;;;;8383475;28;19924;-74
2022/12/31 22:30:30;;;;;;;;;;;15.40;99.90;;;;;;8389604;28;20295;-74
2022/12/31 22:34:32;;;;;;;;;;;15.40;99.90;;;;;;8389158;28;19924;-74
2022/12/31 22:38:34;;;;;;;;;;;15.50;99.90;;;;;;8387521;28;19928;-74
2022/12/31 22:42:36;;;;;;;;;;;15.50;99.90;;;;;;8380621;28;19972;-74
2022/12/31 22:46:37;;;;;;;;;;;15.50;99.90;;;;;;8385507;28;19932;-74
2022/12/31 22:50:39;;;;;;;;;;;15.50;99.90;;;;;;8399561;28;20379;-73
2022/12/31 22:54:41;;;;;;;;;;;15.50;99.90;;;;;;8383799;28;19972;-74
2022/12/31 22:58:43;;;;;;;;;;;15.50;99.90;;;;;;8397601;28;19924;-74
2022/12/31 23:02:44;;;;;;;;;;;15.50;99.90;;;;;;8391310;28;20618;-74
2022/12/31 23:06:46;;;;;;;;;;;15.40;99.90;;;;;;8389464;28;19971;-73
2022/12/31 23:10:58;;;;;;;;;;;15.40;99.90;;;;;;8373395;28;20406;-74
2022/12/31 23:23:40;;;;;;;;;;;15.40;99.90;;;;;;8383631;28;19940;-74
2022/12/31 23:27:42;;;;;;;;;;;15.40;99.90;;;;;;8384319;28;20272;-74
2022/12/31 23:31:44;;;;;;;;;;;15.50;99.90;;;;;;8386467;28;19924;-74
2022/12/31 23:35:45;;;;;;;;;;;15.40;99.90;;;;;;8384710;28;19972;-75
2022/12/31 23:39:47;;;;;;;;;;;15.40;99.90;;;;;;8385004;28;20257;-73
2022/12/31 23:43:49;;;;;;;;;;;15.40;99.90;;;;;;8368552;28;19967;-73
2022/12/31 23:47:51;;;;;;;;;;;15.50;99.90;;;;;;8382879;28;19951;-73
2022/12/31 23:51:52;;;;;;;;;;;15.50;99.90;;;;;;8392619;28;19955;-73
2022/12/31 23:55:54;;;;;;;;;;;15.50;99.90;;;;;;8378142;28;19975;-73
2022/12/31 23:59:55;;;;;;;;;;;15.50;99.90;;;;;;8392786;28;19928;-74
